createdAt,value
2023-04-22T00:00:01.049Z,53.09
2023-04-22T00:00:11.020Z,53.09
2023-04-22T00:00:21.109Z,53.09
2023-04-22T00:00:31.150Z,53.19
2023-04-22T00:00:41.194Z,53.19
2023-04-22T00:00:51.197Z,53.19
2023-04-22T00:01:01.288Z,53.19
2023-04-22T00:01:11.316Z,53.19
2023-04-22T00:01:21.358Z,53.19
2023-04-22T00:01:31.366Z,53.19
2023-04-22T00:01:41.456Z,53.19
2023-04-22T00:01:51.493Z,53.19
2023-04-22T00:02:01.679Z,53.19
2023-04-22T00:02:11.654Z,53.29
2023-04-22T00:02:21.684Z,53.29
2023-04-22T00:02:31.795Z,53.29
2023-04-22T00:02:41.949Z,53.29
2023-04-22T00:02:52.046Z,53.29
2023-04-22T00:03:02.106Z,53.29
2023-04-22T00:03:12.187Z,53.39
2023-04-22T00:03:22.235Z,53.39
2023-04-22T00:03:32.260Z,53.39
2023-04-22T00:03:42.525Z,53.39
2023-04-22T00:03:52.550Z,53.29
2023-04-22T00:04:02.834Z,53.29
2023-04-22T00:04:12.810Z,53.19
2023-04-22T00:04:22.916Z,53.09
2023-04-22T00:04:32.931Z,52.98
2023-04-22T00:04:42.938Z,52.98
2023-04-22T00:04:53.001Z,52.98
2023-04-22T00:05:03.209Z,52.98
2023-04-22T00:05:13.116Z,52.98
2023-04-22T00:05:23.134Z,52.98
2023-04-22T00:05:33.242Z,52.98
2023-04-22T00:05:43.286Z,52.89
2023-04-22T00:05:53.349Z,52.89
2023-04-22T00:06:03.390Z,52.89
2023-04-22T00:06:13.418Z,52.89
2023-04-22T00:06:23.428Z,52.98
2023-04-22T00:06:33.437Z,52.98
2023-04-22T00:06:43.461Z,52.98
2023-04-22T00:06:53.470Z,53.09
2023-04-22T00:07:03.496Z,53.29
2023-04-22T00:07:13.527Z,53.39
2023-04-22T00:07:23.556Z,53.39
2023-04-22T00:07:33.579Z,53.39
2023-04-22T00:07:43.628Z,53.39
2023-04-22T00:07:53.645Z,53.39
2023-04-22T00:08:03.669Z,53.39
2023-04-22T00:08:13.685Z,53.39
2023-04-22T00:08:23.747Z,53.39
2023-04-22T00:08:33.766Z,53.29
2023-04-22T00:08:43.778Z,53.29
2023-04-22T00:08:53.798Z,53.19
2023-04-22T00:09:03.812Z,53.19
2023-04-22T00:09:13.870Z,53.19
2023-04-22T00:09:23.860Z,53.19
2023-04-22T00:09:33.871Z,53.19
2023-04-22T00:09:43.968Z,53.19
2023-04-22T00:09:54.008Z,53.19
2023-04-22T00:10:04.055Z,53.19
2023-04-22T00:10:14.078Z,53.19
2023-04-22T00:10:24.111Z,53.19
2023-04-22T00:10:34.124Z,53.19
2023-04-22T00:10:44.142Z,53.29
2023-04-22T00:10:54.148Z,53.29
2023-04-22T00:11:04.179Z,53.39
2023-04-22T00:11:14.201Z,53.39
2023-04-22T00:11:24.215Z,53.39
2023-04-22T00:11:34.251Z,53.50
2023-04-22T00:11:44.289Z,53.50
2023-04-22T00:11:54.321Z,53.59
2023-04-22T00:12:04.337Z,53.59
2023-04-22T00:12:14.415Z,53.70
2023-04-22T00:12:24.436Z,53.70
2023-04-22T00:12:34.476Z,53.70
2023-04-22T00:12:44.499Z,53.80
2023-04-22T00:12:54.518Z,53.80
2023-04-22T00:13:04.551Z,53.70
2023-04-22T00:13:14.571Z,53.70
2023-04-22T00:13:24.616Z,53.80
2023-04-22T00:13:34.625Z,53.80
2023-04-22T00:13:44.620Z,53.80
2023-04-22T00:13:54.644Z,53.80
2023-04-22T00:14:04.690Z,53.80
2023-04-22T00:14:14.777Z,53.80
2023-04-22T00:14:24.814Z,53.80
2023-04-22T00:14:34.831Z,53.70
2023-04-22T00:14:44.832Z,53.59
2023-04-22T00:14:54.863Z,53.59
2023-04-22T00:15:04.869Z,53.59
2023-04-22T00:15:14.885Z,53.59
2023-04-22T00:15:24.904Z,53.59
2023-04-22T00:15:34.942Z,53.59
2023-04-22T00:15:44.975Z,53.50
2023-04-22T00:15:55.017Z,53.50
2023-04-22T00:16:05.039Z,53.50
2023-04-22T00:16:15.134Z,53.50
2023-04-22T00:16:25.173Z,53.50
2023-04-22T00:16:35.241Z,53.50
2023-04-22T00:16:45.311Z,53.59
2023-04-22T00:16:55.302Z,53.59
2023-04-22T00:17:05.360Z,53.70
2023-04-22T00:17:15.360Z,53.70
2023-04-22T00:17:25.398Z,53.70
2023-04-22T00:17:35.442Z,53.80
2023-04-22T00:17:45.511Z,53.80
2023-04-22T00:17:55.623Z,53.80
2023-04-22T00:18:05.658Z,53.90
2023-04-22T00:18:15.690Z,53.80
2023-04-22T00:18:25.712Z,53.80
2023-04-22T00:18:35.749Z,53.70
2023-04-22T00:18:45.760Z,53.70
2023-04-22T00:18:55.785Z,53.70
2023-04-22T00:19:05.805Z,53.70
2023-04-22T00:19:15.833Z,53.80
2023-04-22T00:19:25.851Z,53.80
2023-04-22T00:19:36.043Z,53.80
2023-04-22T00:19:46.013Z,53.70
2023-04-22T00:19:56.047Z,53.70
2023-04-22T00:20:06.067Z,53.70
2023-04-22T00:20:16.086Z,53.59
2023-04-22T00:20:26.170Z,53.59
2023-04-22T00:20:36.212Z,53.59
2023-04-22T00:20:46.233Z,53.59
2023-04-22T00:20:56.275Z,53.59
2023-04-22T00:21:06.314Z,53.59
2023-04-22T00:21:16.356Z,53.59
2023-04-22T00:21:26.364Z,53.70
2023-04-22T00:21:36.382Z,53.80
2023-04-22T00:21:46.418Z,53.83
2023-04-22T00:21:56.440Z,53.80
2023-04-22T00:22:06.468Z,53.90
2023-04-22T00:22:16.480Z,53.93
2023-04-22T00:22:26.493Z,53.90
2023-04-22T00:22:36.564Z,53.90
2023-04-22T00:22:46.552Z,54.03
2023-04-22T00:22:56.581Z,53.90
2023-04-22T00:23:06.617Z,53.80
2023-04-22T00:23:16.634Z,53.80
2023-04-22T00:23:26.684Z,53.83
2023-04-22T00:23:36.695Z,53.83
2023-04-22T00:23:46.712Z,53.72
2023-04-22T00:23:56.749Z,53.72
2023-04-22T00:24:06.757Z,53.63
2023-04-22T00:24:16.776Z,53.63
2023-04-22T00:24:26.805Z,53.63
2023-04-22T00:24:36.832Z,53.63
2023-04-22T00:24:46.877Z,53.52
2023-04-22T00:24:56.904Z,53.52
2023-04-22T00:25:06.953Z,53.52
2023-04-22T00:25:17.042Z,53.42
2023-04-22T00:25:27.139Z,53.42
2023-04-22T00:25:37.215Z,53.42
2023-04-22T00:25:47.239Z,53.42
2023-04-22T00:25:57.230Z,53.42
2023-04-22T00:26:07.416Z,53.52
2023-04-22T00:26:17.419Z,53.52
2023-04-22T00:26:27.439Z,53.52
2023-04-22T00:26:37.452Z,53.52
2023-04-22T00:26:47.469Z,53.52
2023-04-22T00:26:57.476Z,53.42
2023-04-22T00:27:07.518Z,53.42
2023-04-22T00:27:17.512Z,53.42
2023-04-22T00:27:27.685Z,53.42
2023-04-22T00:27:37.695Z,53.42
2023-04-22T00:27:47.864Z,53.52
2023-04-22T00:27:57.845Z,53.52
2023-04-22T00:28:08.016Z,53.52
2023-04-22T00:28:18.032Z,53.63
2023-04-22T00:28:28.195Z,53.72
2023-04-22T00:28:38.221Z,53.83
2023-04-22T00:28:48.274Z,53.83
2023-04-22T00:28:58.283Z,53.93
2023-04-22T00:29:08.286Z,53.93
2023-04-22T00:29:18.463Z,54.03
2023-04-22T00:29:28.535Z,54.03
2023-04-22T00:29:38.754Z,53.93
2023-04-22T00:29:48.611Z,53.93
2023-04-22T00:29:58.798Z,53.93
2023-04-22T00:30:08.806Z,53.93
2023-04-22T00:30:18.993Z,53.93
2023-04-22T00:30:29.128Z,53.93
2023-04-22T00:30:39.300Z,53.93
2023-04-22T00:30:49.482Z,53.93
2023-04-22T00:30:59.659Z,53.93
2023-04-22T00:31:09.682Z,53.93
2023-04-22T00:31:19.703Z,53.93
2023-04-22T00:31:29.885Z,53.93
2023-04-22T00:31:39.861Z,53.93
2023-04-22T00:31:50.218Z,53.93
2023-04-22T00:32:00.140Z,53.83
2023-04-22T00:32:10.141Z,53.83
2023-04-22T00:32:20.296Z,53.83
2023-04-22T00:32:30.583Z,53.83
2023-04-22T00:32:40.585Z,53.83
2023-04-22T00:32:50.794Z,53.83
2023-04-22T00:33:00.929Z,53.83
2023-04-22T00:33:10.976Z,53.83
2023-04-22T00:33:20.985Z,53.83
2023-04-22T00:33:30.985Z,53.83
2023-04-22T00:33:40.992Z,53.83
2023-04-22T00:33:51.155Z,53.83
2023-04-22T00:34:01.315Z,53.72
2023-04-22T00:34:11.478Z,53.72
2023-04-22T00:34:21.488Z,53.63
2023-04-22T00:34:31.646Z,53.63
2023-04-22T00:34:41.801Z,53.52
2023-04-22T00:34:51.804Z,53.63
2023-04-22T00:35:01.962Z,53.63
2023-04-22T00:35:11.961Z,53.63
2023-04-22T00:35:22.147Z,53.63
2023-04-22T00:35:32.202Z,53.72
2023-04-22T00:35:42.163Z,53.72
2023-04-22T00:35:52.326Z,53.72
2023-04-22T00:36:02.329Z,53.72
2023-04-22T00:36:12.510Z,53.63
2023-04-22T00:36:22.671Z,53.63
2023-04-22T00:36:32.832Z,53.52
2023-04-22T00:36:42.982Z,53.52
2023-04-22T00:36:52.986Z,53.52
2023-04-22T00:37:03.027Z,53.52
2023-04-22T00:37:13.175Z,53.52
2023-04-22T00:37:23.210Z,53.63
2023-04-22T00:37:33.226Z,53.63
2023-04-22T00:37:43.396Z,53.63
2023-04-22T00:37:53.542Z,53.63
2023-04-22T00:38:03.547Z,53.63
2023-04-22T00:38:13.720Z,53.63
2023-04-22T00:38:23.728Z,53.63
2023-04-22T00:38:33.730Z,53.63
2023-04-22T00:38:43.728Z,53.52
2023-04-22T00:38:53.883Z,53.52
2023-04-22T00:39:03.992Z,53.52
2023-04-22T00:39:13.980Z,53.52
2023-04-22T00:39:23.965Z,53.52
2023-04-22T00:39:34.165Z,53.63
2023-04-22T00:39:44.158Z,53.63
2023-04-22T00:39:54.329Z,53.63
2023-04-22T00:40:04.327Z,53.63
2023-04-22T00:40:14.553Z,53.63
2023-04-22T00:40:24.539Z,53.63
2023-04-22T00:40:34.705Z,53.52
2023-04-22T00:40:44.701Z,53.52
2023-04-22T00:40:54.864Z,53.52
2023-04-22T00:41:05.030Z,53.63
2023-04-22T00:41:15.037Z,53.63
2023-04-22T00:41:25.034Z,53.63
2023-04-22T00:41:35.202Z,53.63
2023-04-22T00:41:45.211Z,53.72
2023-04-22T00:41:55.394Z,53.72
2023-04-22T00:42:05.389Z,53.72
2023-04-22T00:42:15.560Z,53.72
2023-04-22T00:42:25.573Z,53.72
2023-04-22T00:42:35.752Z,53.72
2023-04-22T00:42:45.749Z,53.83
2023-04-22T00:42:55.769Z,53.83
2023-04-22T00:43:05.934Z,53.83
2023-04-22T00:43:16.160Z,53.93
2023-04-22T00:43:26.181Z,53.93
2023-04-22T00:43:36.192Z,53.93
2023-04-22T00:43:46.213Z,53.93
2023-04-22T00:43:56.210Z,53.96
2023-04-22T00:44:06.207Z,53.93
2023-04-22T00:44:16.270Z,53.96
2023-04-22T00:44:26.424Z,54.03
2023-04-22T00:44:36.593Z,54.16
2023-04-22T00:44:46.763Z,54.24
2023-04-22T00:44:56.938Z,54.26
2023-04-22T00:45:07.160Z,54.24
2023-04-22T00:45:17.147Z,54.16
2023-04-22T00:45:27.304Z,54.16
2023-04-22T00:45:37.340Z,54.16
2023-04-22T00:45:47.344Z,54.16
2023-04-22T00:45:57.359Z,54.16
2023-04-22T00:46:07.357Z,54.26
2023-04-22T00:46:17.551Z,54.26
2023-04-22T00:46:27.625Z,54.26
2023-04-22T00:46:37.721Z,54.36
2023-04-22T00:46:47.756Z,54.36
2023-04-22T00:46:57.806Z,54.46
2023-04-22T00:47:07.845Z,54.46
2023-04-22T00:47:17.917Z,54.57
2023-04-22T00:47:27.962Z,54.57
2023-04-22T00:47:38.014Z,54.46
2023-04-22T00:47:48.198Z,54.46
2023-04-22T00:47:58.232Z,54.36
2023-04-22T00:48:08.265Z,54.26
2023-04-22T00:48:18.310Z,54.26
2023-04-22T00:48:28.954Z,54.16
2023-04-22T00:48:38.433Z,54.16
2023-04-22T00:48:48.429Z,54.16
2023-04-22T00:48:58.457Z,54.16
2023-04-22T00:49:08.469Z,54.16
2023-04-22T00:49:18.516Z,54.16
2023-04-22T00:49:28.542Z,54.16
2023-04-22T00:49:38.841Z,54.16
2023-04-22T00:49:48.620Z,54.16
2023-04-22T00:49:58.657Z,54.26
2023-04-22T00:50:08.720Z,54.26
2023-04-22T00:50:18.756Z,54.36
2023-04-22T00:50:28.797Z,54.36
2023-04-22T00:50:38.807Z,54.36
2023-04-22T00:50:48.834Z,54.36
2023-04-22T00:50:58.913Z,54.36
2023-04-22T00:51:09.021Z,54.36
2023-04-22T00:51:19.112Z,54.36
2023-04-22T00:51:29.150Z,54.36
2023-04-22T00:51:39.162Z,54.36
2023-04-22T00:51:49.183Z,54.36
2023-04-22T00:51:59.192Z,54.36
2023-04-22T00:52:09.212Z,54.36
2023-04-22T00:52:19.238Z,54.36
2023-04-22T00:52:29.252Z,54.36
2023-04-22T00:52:39.261Z,54.36
2023-04-22T00:52:49.310Z,54.46
2023-04-22T00:52:59.311Z,54.36
2023-04-22T00:53:09.320Z,54.36
2023-04-22T00:53:19.352Z,54.36
2023-04-22T00:53:29.360Z,54.36
2023-04-22T00:53:39.399Z,54.36
2023-04-22T00:53:49.410Z,54.36
2023-04-22T00:53:59.425Z,54.46
2023-04-22T00:54:09.450Z,54.36
2023-04-22T00:54:19.485Z,54.26
2023-04-22T00:54:29.496Z,54.16
2023-04-22T00:54:39.520Z,54.16
2023-04-22T00:54:49.545Z,54.16
2023-04-22T00:54:59.543Z,54.16
2023-04-22T00:55:09.567Z,54.16
2023-04-22T00:55:19.573Z,54.16
2023-04-22T00:55:29.578Z,54.26
2023-04-22T00:55:39.591Z,54.36
2023-04-22T00:55:49.609Z,54.36
2023-04-22T00:55:59.622Z,54.46
2023-04-22T00:56:09.700Z,54.46
2023-04-22T00:56:19.739Z,54.57
2023-04-22T00:56:29.766Z,54.57
2023-04-22T00:56:39.802Z,54.57
2023-04-22T00:56:49.827Z,54.57
2023-04-22T00:56:59.870Z,54.57
2023-04-22T00:57:09.888Z,54.46
2023-04-22T00:57:19.915Z,54.46
2023-04-22T00:57:29.937Z,54.46
2023-04-22T00:57:39.986Z,54.46
2023-04-22T00:57:50.011Z,54.36
2023-04-22T00:58:00.049Z,54.36
2023-04-22T00:58:10.049Z,54.36
2023-04-22T00:58:20.135Z,54.36
2023-04-22T00:58:30.123Z,54.36
2023-04-22T00:58:40.146Z,54.36
2023-04-22T00:58:50.267Z,54.36
2023-04-22T00:59:00.277Z,54.36
2023-04-22T00:59:10.280Z,54.46
2023-04-22T00:59:20.311Z,54.46
2023-04-22T00:59:30.324Z,54.46
2023-04-22T00:59:40.613Z,54.57
2023-04-22T00:59:50.358Z,54.57
2023-04-22T01:00:00.451Z,54.57
2023-04-22T01:00:10.450Z,54.46
2023-04-22T01:00:20.460Z,54.57
2023-04-22T01:00:30.602Z,54.57
2023-04-22T01:00:40.690Z,54.57
2023-04-22T01:00:50.693Z,54.57
2023-04-22T01:01:00.754Z,54.57
2023-04-22T01:01:10.843Z,54.66
2023-04-22T01:01:20.797Z,54.66
2023-04-22T01:01:30.978Z,54.77
2023-04-22T01:01:40.990Z,54.77
2023-04-22T01:01:51.040Z,54.77
2023-04-22T01:02:01.124Z,54.77
2023-04-22T01:02:11.184Z,54.77
2023-04-22T01:02:21.500Z,54.77
2023-04-22T01:02:31.559Z,54.87
2023-04-22T01:02:41.596Z,54.87
2023-04-22T01:02:51.729Z,54.77
2023-04-22T01:03:01.768Z,54.77
2023-04-22T01:03:11.766Z,54.66
2023-04-22T01:03:21.910Z,54.66
2023-04-22T01:03:31.988Z,54.66
2023-04-22T01:03:42.150Z,54.66
2023-04-22T01:03:52.356Z,54.66
2023-04-22T01:04:02.253Z,54.66
2023-04-22T01:04:12.481Z,54.77
2023-04-22T01:04:22.447Z,54.77
2023-04-22T01:04:32.294Z,54.77
2023-04-22T01:04:42.307Z,54.77
2023-04-22T01:04:52.337Z,54.87
2023-04-22T01:05:02.360Z,54.87
2023-04-22T01:05:12.368Z,54.87
2023-04-22T01:05:22.424Z,54.87
2023-04-22T01:05:32.460Z,54.87
2023-04-22T01:05:42.477Z,54.77
2023-04-22T01:05:52.503Z,54.87
2023-04-22T01:06:02.524Z,54.87
2023-04-22T01:06:12.562Z,54.87
2023-04-22T01:06:22.587Z,54.87
2023-04-22T01:06:32.655Z,54.87
2023-04-22T01:06:42.690Z,54.87
2023-04-22T01:06:52.727Z,54.87
2023-04-22T01:07:02.754Z,54.97
2023-04-22T01:07:12.942Z,54.97
2023-04-22T01:07:22.947Z,54.97
2023-04-22T01:07:32.964Z,54.97
2023-04-22T01:07:43.000Z,54.97
2023-04-22T01:07:53.014Z,54.97
2023-04-22T01:08:03.033Z,54.97
2023-04-22T01:08:13.057Z,54.97
2023-04-22T01:08:23.084Z,54.97
2023-04-22T01:08:33.145Z,54.87
2023-04-22T01:08:43.189Z,54.87
2023-04-22T01:08:53.215Z,54.87
2023-04-22T01:09:03.229Z,54.97
2023-04-22T01:09:13.261Z,55.07
2023-04-22T01:09:23.292Z,55.07
2023-04-22T01:09:33.284Z,55.07
2023-04-22T01:09:43.305Z,55.18
2023-04-22T01:09:53.326Z,55.07
2023-04-22T01:10:03.340Z,54.97
2023-04-22T01:10:13.391Z,54.87
2023-04-22T01:10:23.423Z,54.77
2023-04-22T01:10:33.430Z,54.77
2023-04-22T01:10:43.516Z,54.77
2023-04-22T01:10:53.549Z,54.77
2023-04-22T01:11:03.682Z,54.77
2023-04-22T01:11:13.720Z,54.77
2023-04-22T01:11:23.760Z,54.77
2023-04-22T01:11:33.796Z,54.77
2023-04-22T01:11:43.803Z,54.77
2023-04-22T01:11:53.980Z,54.77
2023-04-22T01:12:04.023Z,54.77
2023-04-22T01:12:14.059Z,54.77
2023-04-22T01:12:24.080Z,54.77
2023-04-22T01:12:34.152Z,54.87
2023-04-22T01:12:44.231Z,54.87
2023-04-22T01:12:54.288Z,54.87
2023-04-22T01:13:04.296Z,54.87
2023-04-22T01:13:14.316Z,54.87
2023-04-22T01:13:24.355Z,54.97
2023-04-22T01:13:34.363Z,54.97
2023-04-22T01:13:44.422Z,54.97
2023-04-22T01:13:54.426Z,54.87
2023-04-22T01:14:04.509Z,54.87
2023-04-22T01:14:14.526Z,54.87
2023-04-22T01:14:24.542Z,54.87
2023-04-22T01:14:34.559Z,54.87
2023-04-22T01:14:44.588Z,54.97
2023-04-22T01:14:54.608Z,54.97
2023-04-22T01:15:05.141Z,54.97
2023-04-22T01:15:14.703Z,54.97
2023-04-22T01:15:24.708Z,54.97
2023-04-22T01:15:34.742Z,54.97
2023-04-22T01:15:44.772Z,54.97
2023-04-22T01:15:54.808Z,54.97
2023-04-22T01:16:04.847Z,54.97
2023-04-22T01:16:14.877Z,54.97
2023-04-22T01:16:24.968Z,54.97
2023-04-22T01:16:34.989Z,54.97
2023-04-22T01:16:45.071Z,54.97
2023-04-22T01:16:55.133Z,55.00
2023-04-22T01:17:05.197Z,54.90
2023-04-22T01:17:15.182Z,55.00
2023-04-22T01:17:25.229Z,55.00
2023-04-22T01:17:35.292Z,55.00
2023-04-22T01:17:45.312Z,55.10
2023-04-22T01:17:55.374Z,55.10
2023-04-22T01:18:05.507Z,55.10
2023-04-22T01:18:15.519Z,55.10
2023-04-22T01:18:25.543Z,55.10
2023-04-22T01:18:35.585Z,55.00
2023-04-22T01:18:45.675Z,54.90
2023-04-22T01:18:55.694Z,54.69
2023-04-22T01:19:05.717Z,54.59
2023-04-22T01:19:15.741Z,54.59
2023-04-22T01:19:25.748Z,54.59
2023-04-22T01:19:35.781Z,54.69
2023-04-22T01:19:45.807Z,54.79
2023-04-22T01:19:55.838Z,54.90
2023-04-22T01:20:05.868Z,54.90
2023-04-22T01:20:15.869Z,54.90
2023-04-22T01:20:25.946Z,54.90
2023-04-22T01:20:35.967Z,54.90
2023-04-22T01:20:45.998Z,54.79
2023-04-22T01:20:56.021Z,54.79
2023-04-22T01:21:06.049Z,54.79
2023-04-22T01:21:16.061Z,54.79
2023-04-22T01:21:26.087Z,54.79
2023-04-22T01:21:36.091Z,54.90
2023-04-22T01:21:46.258Z,54.90
2023-04-22T01:21:56.251Z,54.90
2023-04-22T01:22:06.273Z,54.90
2023-04-22T01:22:16.333Z,54.90
2023-04-22T01:22:26.349Z,54.90
2023-04-22T01:22:36.394Z,55.00
2023-04-22T01:22:46.420Z,55.00
2023-04-22T01:22:56.441Z,54.90
2023-04-22T01:23:06.467Z,54.90
2023-04-22T01:23:16.490Z,54.90
2023-04-22T01:23:26.571Z,54.90
2023-04-22T01:23:36.560Z,54.90
2023-04-22T01:23:46.606Z,54.90
2023-04-22T01:23:56.756Z,54.90
2023-04-22T01:24:06.887Z,54.90
2023-04-22T01:24:17.062Z,54.90
2023-04-22T01:24:27.173Z,54.90
2023-04-22T01:24:37.313Z,54.90
2023-04-22T01:24:47.489Z,55.00
2023-04-22T01:24:57.625Z,55.00
2023-04-22T01:25:07.648Z,55.00
2023-04-22T01:25:17.788Z,55.10
2023-04-22T01:25:27.914Z,55.10
2023-04-22T01:25:38.058Z,55.10
2023-04-22T01:25:48.199Z,55.10
2023-04-22T01:25:58.326Z,55.10
2023-04-22T01:26:08.448Z,55.10
2023-04-22T01:26:18.596Z,55.10
2023-04-22T01:26:28.797Z,55.10
2023-04-22T01:26:38.923Z,55.10
2023-04-22T01:26:48.946Z,55.10
2023-04-22T01:26:58.984Z,55.10
2023-04-22T01:27:09.132Z,55.20
2023-04-22T01:27:19.186Z,55.20
2023-04-22T01:27:29.342Z,55.20
2023-04-22T01:27:39.505Z,55.20
2023-04-22T01:27:49.662Z,55.10
2023-04-22T01:27:59.699Z,55.10
2023-04-22T01:28:09.717Z,55.10
2023-04-22T01:28:19.760Z,55.10
2023-04-22T01:28:29.804Z,55.10
2023-04-22T01:28:39.862Z,55.10
2023-04-22T01:28:49.899Z,55.10
2023-04-22T01:28:59.936Z,55.10
2023-04-22T01:29:09.961Z,55.10
2023-04-22T01:29:20.057Z,55.10
2023-04-22T01:29:30.151Z,55.10
2023-04-22T01:29:40.480Z,55.10
2023-04-22T01:29:50.228Z,55.10
2023-04-22T01:30:00.267Z,55.20
2023-04-22T01:30:10.290Z,55.20
2023-04-22T01:30:20.329Z,55.20
2023-04-22T01:30:30.369Z,55.20
2023-04-22T01:30:40.464Z,55.20
2023-04-22T01:30:50.517Z,55.20
2023-04-22T01:31:00.584Z,55.20
2023-04-22T01:31:10.671Z,55.20
2023-04-22T01:31:20.719Z,55.20
2023-04-22T01:31:30.825Z,55.20
2023-04-22T01:31:40.856Z,55.20
2023-04-22T01:31:50.929Z,55.20
2023-04-22T01:32:01.055Z,55.20
2023-04-22T01:32:11.151Z,55.20
2023-04-22T01:32:21.159Z,55.20
2023-04-22T01:32:31.197Z,55.20
2023-04-22T01:32:41.436Z,55.30
2023-04-22T01:32:51.339Z,55.30
2023-04-22T01:33:01.624Z,55.41
2023-04-22T01:33:11.765Z,55.41
2023-04-22T01:33:21.636Z,55.41
2023-04-22T01:33:31.710Z,55.51
2023-04-22T01:33:41.807Z,55.51
2023-04-22T01:33:51.911Z,55.51
2023-04-22T01:34:01.952Z,55.41
2023-04-22T01:34:11.991Z,55.30
2023-04-22T01:34:22.035Z,55.20
2023-04-22T01:34:32.187Z,55.20
2023-04-22T01:34:42.226Z,55.10
2023-04-22T01:34:52.280Z,55.10
2023-04-22T01:35:02.329Z,55.10
2023-04-22T01:35:12.374Z,55.10
2023-04-22T01:35:22.419Z,55.10
2023-04-22T01:35:32.469Z,55.10
2023-04-22T01:35:42.508Z,55.10
2023-04-22T01:35:52.570Z,55.10
2023-04-22T01:36:02.607Z,55.20
2023-04-22T01:36:13.345Z,55.20
2023-04-22T01:36:22.724Z,55.30
2023-04-22T01:36:32.780Z,55.30
2023-04-22T01:36:42.821Z,55.30
2023-04-22T01:36:52.868Z,55.30
2023-04-22T01:37:02.961Z,55.30
2023-04-22T01:37:12.981Z,55.30
2023-04-22T01:37:23.017Z,55.33
2023-04-22T01:37:33.084Z,55.33
2023-04-22T01:37:43.161Z,55.43
2023-04-22T01:37:53.236Z,55.51
2023-04-22T01:38:03.267Z,55.51
2023-04-22T01:38:13.310Z,55.53
2023-04-22T01:38:23.325Z,55.61
2023-04-22T01:38:33.391Z,55.71
2023-04-22T01:38:43.433Z,55.74
2023-04-22T01:38:53.480Z,55.81
2023-04-22T01:39:03.525Z,55.84
2023-04-22T01:39:13.600Z,55.84
2023-04-22T01:39:23.665Z,55.84
2023-04-22T01:39:33.733Z,55.84
2023-04-22T01:39:43.772Z,55.84
2023-04-22T01:39:53.806Z,55.84
2023-04-22T01:40:03.845Z,55.84
2023-04-22T01:40:13.878Z,55.84
2023-04-22T01:40:24.050Z,55.84
2023-04-22T01:40:34.211Z,55.84
2023-04-22T01:40:44.380Z,55.84
2023-04-22T01:40:54.537Z,55.84
2023-04-22T01:41:04.707Z,55.84
2023-04-22T01:41:14.714Z,55.84
2023-04-22T01:41:24.881Z,55.84
2023-04-22T01:41:35.033Z,55.84
2023-04-22T01:41:45.178Z,55.74
2023-04-22T01:41:55.189Z,55.74
2023-04-22T01:42:05.343Z,55.63
2023-04-22T01:42:15.458Z,55.63
2023-04-22T01:42:25.629Z,55.63
2023-04-22T01:42:35.666Z,55.63
2023-04-22T01:42:45.784Z,55.63
2023-04-22T01:42:55.948Z,55.63
2023-04-22T01:43:06.127Z,55.53
2023-04-22T01:43:16.137Z,55.53
2023-04-22T01:43:26.326Z,55.53
2023-04-22T01:43:36.302Z,55.53
2023-04-22T01:43:46.482Z,55.53
2023-04-22T01:43:56.482Z,55.53
2023-04-22T01:44:06.501Z,55.53
2023-04-22T01:44:16.705Z,55.53
2023-04-22T01:44:26.680Z,55.53
2023-04-22T01:44:36.840Z,55.53
2023-04-22T01:44:47.004Z,55.53
2023-04-22T01:44:57.161Z,55.53
2023-04-22T01:45:07.301Z,55.53
2023-04-22T01:45:17.496Z,55.53
2023-04-22T01:45:27.684Z,55.53
2023-04-22T01:45:37.756Z,55.53
2023-04-22T01:45:47.795Z,55.53
2023-04-22T01:45:57.933Z,55.63
2023-04-22T01:46:07.969Z,55.63
2023-04-22T01:46:18.157Z,55.74
2023-04-22T01:46:28.115Z,55.74
2023-04-22T01:46:38.299Z,55.74
2023-04-22T01:46:48.233Z,55.74
2023-04-22T01:46:58.393Z,55.74
2023-04-22T01:47:08.556Z,55.84
2023-04-22T01:47:18.725Z,55.84
2023-04-22T01:47:28.874Z,55.84
2023-04-22T01:47:39.082Z,55.84
2023-04-22T01:47:49.124Z,55.84
2023-04-22T01:47:59.141Z,55.84
2023-04-22T01:48:09.153Z,55.84
2023-04-22T01:48:19.147Z,55.84
2023-04-22T01:48:29.158Z,55.84
2023-04-22T01:48:39.314Z,55.84
2023-04-22T01:48:49.489Z,55.84
2023-04-22T01:48:59.685Z,55.84
2023-04-22T01:49:09.699Z,55.84
2023-04-22T01:49:19.694Z,55.84
2023-04-22T01:49:29.850Z,55.74
2023-04-22T01:49:40.351Z,55.74
2023-04-22T01:49:50.125Z,55.74
2023-04-22T01:50:00.290Z,55.63
2023-04-22T01:50:10.422Z,55.63
2023-04-22T01:50:20.460Z,55.63
2023-04-22T01:50:30.624Z,55.63
2023-04-22T01:50:40.779Z,55.53
2023-04-22T01:50:50.779Z,55.63
2023-04-22T01:51:00.942Z,55.63
2023-04-22T01:51:11.109Z,55.63
2023-04-22T01:51:21.289Z,55.63
2023-04-22T01:51:31.429Z,55.74
2023-04-22T01:51:41.444Z,55.74
2023-04-22T01:51:51.440Z,55.63
2023-04-22T01:52:01.654Z,55.63
2023-04-22T01:52:11.639Z,55.63
2023-04-22T01:52:21.794Z,55.63
2023-04-22T01:52:31.802Z,55.74
2023-04-22T01:52:41.979Z,55.63
2023-04-22T01:52:51.965Z,55.63
2023-04-22T01:53:01.985Z,55.63
2023-04-22T01:53:12.027Z,55.63
2023-04-22T01:53:22.001Z,55.63
2023-04-22T01:53:32.017Z,55.74
2023-04-22T01:53:42.200Z,55.74
2023-04-22T01:53:52.248Z,55.74
2023-04-22T01:54:02.310Z,55.74
2023-04-22T01:54:12.367Z,55.74
2023-04-22T01:54:22.397Z,55.74
2023-04-22T01:54:32.449Z,55.74
2023-04-22T01:54:42.480Z,55.74
2023-04-22T01:54:52.531Z,55.74
2023-04-22T01:55:02.575Z,55.74
2023-04-22T01:55:12.624Z,55.74
2023-04-22T01:55:22.683Z,55.63
2023-04-22T01:55:32.721Z,55.53
2023-04-22T01:55:42.815Z,55.53
2023-04-22T01:55:52.833Z,55.53
2023-04-22T01:56:02.878Z,55.53
2023-04-22T01:56:12.943Z,55.53
2023-04-22T01:56:22.991Z,55.53
2023-04-22T01:56:33.045Z,55.53
2023-04-22T01:56:43.129Z,55.63
2023-04-22T01:56:53.200Z,55.63
2023-04-22T01:57:03.221Z,55.74
2023-04-22T01:57:13.315Z,55.74
2023-04-22T01:57:23.355Z,55.74
2023-04-22T01:57:33.347Z,55.74
2023-04-22T01:57:43.385Z,55.63
2023-04-22T01:57:53.438Z,55.63
2023-04-22T01:58:03.589Z,55.63
2023-04-22T01:58:13.640Z,55.63
2023-04-22T01:58:23.707Z,55.63
2023-04-22T01:58:33.773Z,55.63
2023-04-22T01:58:43.832Z,55.74
2023-04-22T01:58:54.025Z,55.74
2023-04-22T01:59:03.887Z,55.74
2023-04-22T01:59:13.951Z,55.84
2023-04-22T01:59:24.025Z,55.84
2023-04-22T01:59:34.079Z,55.84
2023-04-22T01:59:44.120Z,55.84
2023-04-22T01:59:54.173Z,55.94
2023-04-22T02:00:04.244Z,55.94
2023-04-22T02:00:14.289Z,56.04
2023-04-22T02:00:24.341Z,56.04
2023-04-22T02:00:34.401Z,56.04
2023-04-22T02:00:44.422Z,55.94
2023-04-22T02:00:54.477Z,55.84
2023-04-22T02:01:04.613Z,55.84
2023-04-22T02:01:14.704Z,55.84
2023-04-22T02:01:24.762Z,55.84
2023-04-22T02:01:34.858Z,55.74
2023-04-22T02:01:44.998Z,55.74
2023-04-22T02:01:55.083Z,55.74
2023-04-22T02:02:05.149Z,55.74
2023-04-22T02:02:15.194Z,55.74
2023-04-22T02:02:25.320Z,55.74
2023-04-22T02:02:35.391Z,55.74
2023-04-22T02:02:45.445Z,55.74
2023-04-22T02:02:55.539Z,55.74
2023-04-22T02:03:05.634Z,55.87
2023-04-22T02:03:15.806Z,55.87
2023-04-22T02:03:25.950Z,55.97
2023-04-22T02:03:35.847Z,55.94
2023-04-22T02:03:46.070Z,56.07
2023-04-22T02:03:56.053Z,55.97
2023-04-22T02:04:06.057Z,55.97
2023-04-22T02:04:16.126Z,55.97
2023-04-22T02:04:26.229Z,55.97
2023-04-22T02:04:36.289Z,55.97
2023-04-22T02:04:46.316Z,55.97
2023-04-22T02:04:56.349Z,55.97
2023-04-22T02:05:06.481Z,55.97
2023-04-22T02:05:16.403Z,55.97
2023-04-22T02:05:26.424Z,56.07
2023-04-22T02:05:36.460Z,56.07
2023-04-22T02:05:46.497Z,56.07
2023-04-22T02:05:56.535Z,55.97
2023-04-22T02:06:06.571Z,55.87
2023-04-22T02:06:16.604Z,55.87
2023-04-22T02:06:26.629Z,55.87
2023-04-22T02:06:36.668Z,55.87
2023-04-22T02:06:46.668Z,55.87
2023-04-22T02:06:56.699Z,55.87
2023-04-22T02:07:06.747Z,55.76
2023-04-22T02:07:16.771Z,55.76
2023-04-22T02:07:26.817Z,55.76
2023-04-22T02:07:36.841Z,55.76
2023-04-22T02:07:46.898Z,55.76
2023-04-22T02:07:56.934Z,55.76
2023-04-22T02:08:06.979Z,55.76
2023-04-22T02:08:17.058Z,55.76
2023-04-22T02:08:27.166Z,55.76
2023-04-22T02:08:37.181Z,55.87
2023-04-22T02:08:47.221Z,55.87
2023-04-22T02:08:57.292Z,55.87
2023-04-22T02:09:07.358Z,55.87
2023-04-22T02:09:17.404Z,55.87
2023-04-22T02:09:27.442Z,55.87